sensor_id;sensor_type;location;lat;lon;timestamp;P1;durP1;ratioP1;P2;durP2;ratioP2
24567;SDS011;12731;52.182;8.716;2023-03-31T00:01:49;10.60;;;2.78;;
24567;SDS011;12731;52.182;8.716;2023-03-31T00:04:18;6.03;;;2.00;;
24567;SDS011;12731;52.182;8.716;2023-03-31T00:06:49;7.72;;;2.28;;
24567;SDS011;12731;52.182;8.716;2023-03-31T00:09:19;7.78;;;2.28;;
24567;SDS011;12731;52.182;8.716;2023-03-31T00:11:47;7.80;;;1.98;;
24567;SDS011;12731;52.182;8.716;2023-03-31T00:14:15;8.75;;;2.03;;
24567;SDS011;12731;52.182;8.716;2023-03-31T00:16:43;5.28;;;1.90;;
24567;SDS011;12731;52.182;8.716;2023-03-31T00:19:10;7.57;;;2.35;;
24567;SDS011;12731;52.182;8.716;2023-03-31T00:21:43;8.30;;;1.85;;
24567;SDS011;12731;52.182;8.716;2023-03-31T00:24:11;8.02;;;1.80;;
24567;SDS011;12731;52.182;8.716;2023-03-31T00:26:37;7.07;;;2.13;;
24567;SDS011;12731;52.182;8.716;2023-03-31T00:29:05;7.20;;;1.90;;
24567;SDS011;12731;52.182;8.716;2023-03-31T00:31:33;7.63;;;1.65;;
24567;SDS011;12731;52.182;8.716;2023-03-31T00:33:59;4.82;;;1.90;;
24567;SDS011;12731;52.182;8.716;2023-03-31T00:36:26;6.32;;;2.33;;
24567;SDS011;12731;52.182;8.716;2023-03-31T00:38:53;4.45;;;1.40;;
24567;SDS011;12731;52.182;8.716;2023-03-31T00:41:21;6.90;;;2.20;;
24567;SDS011;12731;52.182;8.716;2023-03-31T00:46:43;7.72;;;1.70;;
24567;SDS011;12731;52.182;8.716;2023-03-31T00:51:53;5.68;;;2.00;;
24567;SDS011;12731;52.182;8.716;2023-03-31T00:54:21;7.03;;;1.83;;
24567;SDS011;12731;52.182;8.716;2023-03-31T00:56:50;6.35;;;1.80;;
24567;SDS011;12731;52.182;8.716;2023-03-31T00:59:20;6.80;;;2.10;;
24567;SDS011;12731;52.182;8.716;2023-03-31T01:01:52;6.53;;;2.03;;
24567;SDS011;12731;52.182;8.716;2023-03-31T01:04:19;6.30;;;1.80;;
24567;SDS011;12731;52.182;8.716;2023-03-31T01:06:53;8.20;;;2.22;;
24567;SDS011;12731;52.182;8.716;2023-03-31T01:09:23;7.03;;;2.70;;
24567;SDS011;12731;52.182;8.716;2023-03-31T01:11:50;10.68;;;2.70;;
24567;SDS011;12731;52.182;8.716;2023-03-31T01:14:16;7.22;;;2.72;;
24567;SDS011;12731;52.182;8.716;2023-03-31T01:16:42;8.32;;;2.78;;
24567;SDS011;12731;52.182;8.716;2023-03-31T01:19:12;11.95;;;3.20;;
24567;SDS011;12731;52.182;8.716;2023-03-31T01:27:20;8.23;;;2.60;;
24567;SDS011;12731;52.182;8.716;2023-03-31T01:32:54;9.70;;;2.28;;
24567;SDS011;12731;52.182;8.716;2023-03-31T01:41:18;7.22;;;2.00;;
24567;SDS011;12731;52.182;8.716;2023-03-31T01:47:26;7.20;;;2.00;;
24567;SDS011;12731;52.182;8.716;2023-03-31T01:55:23;6.05;;;2.05;;
24567;SDS011;12731;52.182;8.716;2023-03-31T01:57:52;7.15;;;2.03;;
24567;SDS011;12731;52.182;8.716;2023-03-31T02:00:22;5.75;;;1.70;;
24567;SDS011;12731;52.182;8.716;2023-03-31T02:05:34;7.38;;;1.95;;
24567;SDS011;12731;52.182;8.716;2023-03-31T02:08:05;7.50;;;2.25;;
24567;SDS011;12731;52.182;8.716;2023-03-31T02:10:34;7.43;;;2.10;;
24567;SDS011;12731;52.182;8.716;2023-03-31T02:13:02;10.10;;;2.00;;
24567;SDS011;12731;52.182;8.716;2023-03-31T02:15:29;5.35;;;1.85;;
24567;SDS011;12731;52.182;8.716;2023-03-31T02:18:00;10.65;;;2.28;;
24567;SDS011;12731;52.182;8.716;2023-03-31T02:20:31;7.22;;;2.00;;
24567;SDS011;12731;52.182;8.716;2023-03-31T02:22:58;6.22;;;2.17;;
24567;SDS011;12731;52.182;8.716;2023-03-31T02:25:27;7.05;;;2.20;;
24567;SDS011;12731;52.182;8.716;2023-03-31T02:28:01;8.57;;;2.78;;
24567;SDS011;12731;52.182;8.716;2023-03-31T02:31:35;8.52;;;2.13;;
24567;SDS011;12731;52.182;8.716;2023-03-31T02:33:28;9.48;;;2.28;;
24567;SDS011;12731;52.182;8.716;2023-03-31T02:35:55;8.95;;;2.35;;
24567;SDS011;12731;52.182;8.716;2023-03-31T02:38:23;9.95;;;2.38;;
24567;SDS011;12731;52.182;8.716;2023-03-31T02:40:50;8.52;;;2.25;;
24567;SDS011;12731;52.182;8.716;2023-03-31T02:43:16;4.65;;;1.85;;
24567;SDS011;12731;52.182;8.716;2023-03-31T02:48:16;8.13;;;1.90;;
24567;SDS011;12731;52.182;8.716;2023-03-31T02:53:55;6.40;;;2.13;;
24567;SDS011;12731;52.182;8.716;2023-03-31T03:02:09;7.03;;;2.00;;
24567;SDS011;12731;52.182;8.716;2023-03-31T03:10:44;8.70;;;1.88;;
24567;SDS011;12731;52.182;8.716;2023-03-31T03:13:40;7.03;;;1.80;;
24567;SDS011;12731;52.182;8.716;2023-03-31T03:16:22;8.82;;;2.10;;
24567;SDS011;12731;52.182;8.716;2023-03-31T03:18:59;8.32;;;2.13;;
24567;SDS011;12731;52.182;8.716;2023-03-31T03:21:27;7.15;;;1.80;;
24567;SDS011;12731;52.182;8.716;2023-03-31T03:23:54;7.28;;;2.00;;
24567;SDS011;12731;52.182;8.716;2023-03-31T03:26:20;7.47;;;1.73;;
24567;SDS011;12731;52.182;8.716;2023-03-31T03:31:20;6.70;;;1.98;;
24567;SDS011;12731;52.182;8.716;2023-03-31T03:33:49;6.68;;;1.80;;
24567;SDS011;12731;52.182;8.716;2023-03-31T03:36:16;6.38;;;1.88;;
24567;SDS011;12731;52.182;8.716;2023-03-31T03:38:43;7.60;;;1.90;;
24567;SDS011;12731;52.182;8.716;2023-03-31T03:41:09;7.70;;;1.70;;
24567;SDS011;12731;52.182;8.716;2023-03-31T03:43:36;6.35;;;2.13;;
24567;SDS011;12731;52.182;8.716;2023-03-31T03:46:02;5.22;;;1.70;;
24567;SDS011;12731;52.182;8.716;2023-03-31T03:48:29;6.65;;;1.95;;
24567;SDS011;12731;52.182;8.716;2023-03-31T03:50:57;6.40;;;1.80;;
24567;SDS011;12731;52.182;8.716;2023-03-31T03:53:25;5.97;;;1.70;;
24567;SDS011;12731;52.182;8.716;2023-03-31T03:55:52;5.22;;;1.70;;
24567;SDS011;12731;52.182;8.716;2023-03-31T03:58:18;7.57;;;1.90;;
24567;SDS011;12731;52.182;8.716;2023-03-31T04:00:45;8.90;;;1.80;;
24567;SDS011;12731;52.182;8.716;2023-03-31T04:03:12;6.80;;;1.98;;
24567;SDS011;12731;52.182;8.716;2023-03-31T04:05:38;7.03;;;1.67;;
24567;SDS011;12731;52.182;8.716;2023-03-31T04:08:05;5.38;;;1.67;;
24567;SDS011;12731;52.182;8.716;2023-03-31T04:10:33;8.70;;;2.42;;
24567;SDS011;12731;52.182;8.716;2023-03-31T04:13:00;6.10;;;1.77;;
24567;SDS011;12731;52.182;8.716;2023-03-31T04:15:27;7.57;;;2.05;;
24567;SDS011;12731;52.182;8.716;2023-03-31T04:17:53;10.27;;;2.08;;
24567;SDS011;12731;52.182;8.716;2023-03-31T04:20:23;8.73;;;1.85;;
24567;SDS011;12731;52.182;8.716;2023-03-31T04:22:53;5.90;;;1.40;;
24567;SDS011;12731;52.182;8.716;2023-03-31T04:25:19;6.40;;;1.80;;
24567;SDS011;12731;52.182;8.716;2023-03-31T04:27:50;5.32;;;1.75;;
24567;SDS011;12731;52.182;8.716;2023-03-31T04:30:20;6.30;;;2.28;;
24567;SDS011;12731;52.182;8.716;2023-03-31T04:32:52;8.43;;;2.25;;
24567;SDS011;12731;52.182;8.716;2023-03-31T04:37:48;9.20;;;2.00;;
24567;SDS011;12731;52.182;8.716;2023-03-31T04:40:15;7.85;;;1.85;;
24567;SDS011;12731;52.182;8.716;2023-03-31T04:42:43;8.65;;;2.25;;
24567;SDS011;12731;52.182;8.716;2023-03-31T04:45:10;10.15;;;2.45;;
24567;SDS011;12731;52.182;8.716;2023-03-31T04:47:37;7.85;;;2.42;;
24567;SDS011;12731;52.182;8.716;2023-03-31T04:50:04;7.90;;;2.42;;
24567;SDS011;12731;52.182;8.716;2023-03-31T04:52:31;10.52;;;2.28;;
24567;SDS011;12731;52.182;8.716;2023-03-31T04:54:57;7.55;;;2.88;;
24567;SDS011;12731;52.182;8.716;2023-03-31T04:57:24;8.90;;;2.60;;
24567;SDS011;12731;52.182;8.716;2023-03-31T04:59:50;6.82;;;2.20;;
24567;SDS011;12731;52.182;8.716;2023-03-31T05:02:17;8.23;;;2.47;;
24567;SDS011;12731;52.182;8.716;2023-03-31T05:04:50;10.43;;;2.95;;
24567;SDS011;12731;52.182;8.716;2023-03-31T05:07:17;4.82;;;2.53;;
24567;SDS011;12731;52.182;8.716;2023-03-31T05:09:44;7.80;;;2.80;;
24567;SDS011;12731;52.182;8.716;2023-03-31T05:12:10;7.07;;;2.60;;
24567;SDS011;12731;52.182;8.716;2023-03-31T05:14:37;9.88;;;2.60;;
24567;SDS011;12731;52.182;8.716;2023-03-31T05:17:03;8.43;;;2.60;;
24567;SDS011;12731;52.182;8.716;2023-03-31T05:19:30;4.22;;;2.08;;
24567;SDS011;12731;52.182;8.716;2023-03-31T05:21:56;8.43;;;2.33;;
24567;SDS011;12731;52.182;8.716;2023-03-31T05:24:23;11.88;;;2.45;;
24567;SDS011;12731;52.182;8.716;2023-03-31T05:26:49;7.68;;;2.20;;
24567;SDS011;12731;52.182;8.716;2023-03-31T05:29:18;7.75;;;2.50;;
24567;SDS011;12731;52.182;8.716;2023-03-31T05:31:44;7.93;;;2.15;;
24567;SDS011;12731;52.182;8.716;2023-03-31T05:34:11;7.13;;;1.83;;
24567;SDS011;12731;52.182;8.716;2023-03-31T05:36:38;7.18;;;1.80;;
24567;SDS011;12731;52.182;8.716;2023-03-31T05:39:05;7.63;;;2.67;;
24567;SDS011;12731;52.182;8.716;2023-03-31T05:41:33;7.40;;;1.98;;
24567;SDS011;12731;52.182;8.716;2023-03-31T05:43:59;7.82;;;1.90;;
24567;SDS011;12731;52.182;8.716;2023-03-31T05:46:27;6.10;;;2.10;;
24567;SDS011;12731;52.182;8.716;2023-03-31T05:48:53;8.30;;;2.20;;
24567;SDS011;12731;52.182;8.716;2023-03-31T05:51:21;6.18;;;1.85;;
24567;SDS011;12731;52.182;8.716;2023-03-31T05:53:48;6.63;;;2.22;;
24567;SDS011;12731;52.182;8.716;2023-03-31T05:56:14;7.05;;;2.10;;
24567;SDS011;12731;52.182;8.716;2023-03-31T05:58:41;6.63;;;1.92;;
24567;SDS011;12731;52.182;8.716;2023-03-31T06:01:08;7.40;;;2.10;;
24567;SDS011;12731;52.182;8.716;2023-03-31T06:03:38;9.45;;;2.20;;
24567;SDS011;12731;52.182;8.716;2023-03-31T06:06:09;12.32;;;2.63;;
24567;SDS011;12731;52.182;8.716;2023-03-31T06:08:38;7.32;;;2.08;;
24567;SDS011;12731;52.182;8.716;2023-03-31T06:11:05;7.30;;;2.20;;
24567;SDS011;12731;52.182;8.716;2023-03-31T06:13:33;10.98;;;2.40;;
24567;SDS011;12731;52.182;8.716;2023-03-31T06:16:00;6.55;;;2.10;;
24567;SDS011;12731;52.182;8.716;2023-03-31T06:18:27;8.77;;;2.20;;
24567;SDS011;12731;52.182;8.716;2023-03-31T06:20:55;5.47;;;1.90;;
24567;SDS011;12731;52.182;8.716;2023-03-31T06:23:22;9.98;;;2.38;;
24567;SDS011;12731;52.182;8.716;2023-03-31T06:25:49;6.90;;;1.90;;
24567;SDS011;12731;52.182;8.716;2023-03-31T06:28:17;6.95;;;1.95;;
24567;SDS011;12731;52.182;8.716;2023-03-31T06:30:44;8.70;;;1.65;;
24567;SDS011;12731;52.182;8.716;2023-03-31T06:33:11;9.38;;;2.13;;
24567;SDS011;12731;52.182;8.716;2023-03-31T06:35:39;8.68;;;2.10;;
24567;SDS011;12731;52.182;8.716;2023-03-31T06:38:06;6.32;;;1.70;;
24567;SDS011;12731;52.182;8.716;2023-03-31T06:40:33;5.10;;;1.35;;
24567;SDS011;12731;52.182;8.716;2023-03-31T06:42:59;6.65;;;1.90;;
24567;SDS011;12731;52.182;8.716;2023-03-31T06:45:25;7.78;;;1.90;;
24567;SDS011;12731;52.182;8.716;2023-03-31T06:47:52;9.68;;;1.90;;
24567;SDS011;12731;52.182;8.716;2023-03-31T06:50:18;8.68;;;1.77;;
24567;SDS011;12731;52.182;8.716;2023-03-31T06:52:45;7.00;;;1.52;;
24567;SDS011;12731;52.182;8.716;2023-03-31T06:55:12;6.22;;;1.98;;
24567;SDS011;12731;52.182;8.716;2023-03-31T06:57:40;6.28;;;1.65;;
24567;SDS011;12731;52.182;8.716;2023-03-31T07:00:07;6.07;;;1.60;;
24567;SDS011;12731;52.182;8.716;2023-03-31T07:02:34;7.53;;;2.20;;
24567;SDS011;12731;52.182;8.716;2023-03-31T07:05:02;7.30;;;1.60;;
24567;SDS011;12731;52.182;8.716;2023-03-31T07:07:32;8.18;;;1.80;;
24567;SDS011;12731;52.182;8.716;2023-03-31T07:09:58;7.30;;;1.80;;
24567;SDS011;12731;52.182;8.716;2023-03-31T07:12:25;8.23;;;1.63;;
24567;SDS011;12731;52.182;8.716;2023-03-31T07:14:51;7.28;;;1.90;;
24567;SDS011;12731;52.182;8.716;2023-03-31T07:17:18;8.10;;;2.42;;
24567;SDS011;12731;52.182;8.716;2023-03-31T07:19:44;6.70;;;1.60;;
24567;SDS011;12731;52.182;8.716;2023-03-31T07:22:13;10.43;;;2.03;;
24567;SDS011;12731;52.182;8.716;2023-03-31T07:24:41;5.85;;;1.88;;
24567;SDS011;12731;52.182;8.716;2023-03-31T07:27:07;6.32;;;1.58;;
24567;SDS011;12731;52.182;8.716;2023-03-31T07:29:33;8.30;;;2.00;;
24567;SDS011;12731;52.182;8.716;2023-03-31T07:32:00;4.95;;;1.73;;
24567;SDS011;12731;52.182;8.716;2023-03-31T07:34:27;4.57;;;1.48;;
24567;SDS011;12731;52.182;8.716;2023-03-31T07:36:54;7.45;;;1.88;;
24567;SDS011;12731;52.182;8.716;2023-03-31T07:39:21;7.90;;;1.75;;
24567;SDS011;12731;52.182;8.716;2023-03-31T07:41:47;4.97;;;1.83;;
24567;SDS011;12731;52.182;8.716;2023-03-31T07:44:14;4.57;;;1.40;;
24567;SDS011;12731;52.182;8.716;2023-03-31T07:46:42;4.63;;;1.35;;
24567;SDS011;12731;52.182;8.716;2023-03-31T07:49:09;4.68;;;1.40;;
24567;SDS011;12731;52.182;8.716;2023-03-31T07:51:35;6.15;;;1.85;;
24567;SDS011;12731;52.182;8.716;2023-03-31T07:54:02;3.85;;;1.30;;
24567;SDS011;12731;52.182;8.716;2023-03-31T07:56:28;4.85;;;1.60;;
24567;SDS011;12731;52.182;8.716;2023-03-31T07:58:54;4.00;;;1.42;;
24567;SDS011;12731;52.182;8.716;2023-03-31T08:01:23;4.20;;;1.38;;
24567;SDS011;12731;52.182;8.716;2023-03-31T08:03:51;4.22;;;1.40;;
24567;SDS011;12731;52.182;8.716;2023-03-31T08:06:20;4.15;;;1.52;;
24567;SDS011;12731;52.182;8.716;2023-03-31T08:08:48;6.38;;;1.50;;
24567;SDS011;12731;52.182;8.716;2023-03-31T08:11:16;4.75;;;1.48;;
24567;SDS011;12731;52.182;8.716;2023-03-31T08:13:42;5.53;;;1.60;;
24567;SDS011;12731;52.182;8.716;2023-03-31T08:16:09;2.78;;;1.02;;
24567;SDS011;12731;52.182;8.716;2023-03-31T08:18:36;6.30;;;1.55;;
24567;SDS011;12731;52.182;8.716;2023-03-31T08:21:02;5.13;;;1.23;;
24567;SDS011;12731;52.182;8.716;2023-03-31T08:23:29;4.32;;;1.50;;
24567;SDS011;12731;52.182;8.716;2023-03-31T08:26:06;5.22;;;1.40;;
24567;SDS011;12731;52.182;8.716;2023-03-31T08:28:43;3.97;;;1.27;;
24567;SDS011;12731;52.182;8.716;2023-03-31T08:31:17;3.28;;;1.42;;
24567;SDS011;12731;52.182;8.716;2023-03-31T08:33:45;5.40;;;1.52;;
24567;SDS011;12731;52.182;8.716;2023-03-31T08:36:11;3.30;;;1.23;;
24567;SDS011;12731;52.182;8.716;2023-03-31T08:38:40;2.95;;;1.25;;
24567;SDS011;12731;52.182;8.716;2023-03-31T08:44:09;5.15;;;1.70;;
24567;SDS011;12731;52.182;8.716;2023-03-31T08:47:01;4.05;;;1.60;;
24567;SDS011;12731;52.182;8.716;2023-03-31T08:49:30;4.63;;;1.60;;
24567;SDS011;12731;52.182;8.716;2023-03-31T08:52:03;5.28;;;1.42;;
24567;SDS011;12731;52.182;8.716;2023-03-31T08:54:32;3.83;;;1.45;;
24567;SDS011;12731;52.182;8.716;2023-03-31T08:57:01;4.85;;;1.33;;
24567;SDS011;12731;52.182;8.716;2023-03-31T08:59:32;3.97;;;1.50;;
24567;SDS011;12731;52.182;8.716;2023-03-31T09:10:25;4.18;;;1.45;;
24567;SDS011;12731;52.182;8.716;2023-03-31T09:13:23;3.88;;;1.20;;
24567;SDS011;12731;52.182;8.716;2023-03-31T09:16:11;3.30;;;1.63;;
24567;SDS011;12731;52.182;8.716;2023-03-31T09:18:49;4.07;;;1.88;;
24567;SDS011;12731;52.182;8.716;2023-03-31T09:23:58;6.65;;;2.20;;
24567;SDS011;12731;52.182;8.716;2023-03-31T09:26:33;6.43;;;2.42;;
24567;SDS011;12731;52.182;8.716;2023-03-31T09:29:03;4.03;;;2.00;;
24567;SDS011;12731;52.182;8.716;2023-03-31T09:31:33;3.42;;;1.70;;
24567;SDS011;12731;52.182;8.716;2023-03-31T09:34:00;3.47;;;2.10;;
24567;SDS011;12731;52.182;8.716;2023-03-31T09:36:39;5.93;;;2.33;;
24567;SDS011;12731;52.182;8.716;2023-03-31T09:39:05;6.20;;;2.22;;
24567;SDS011;12731;52.182;8.716;2023-03-31T09:41:34;10.68;;;3.28;;
24567;SDS011;12731;52.182;8.716;2023-03-31T09:44:01;6.22;;;1.95;;
24567;SDS011;12731;52.182;8.716;2023-03-31T09:46:34;4.03;;;1.30;;
24567;SDS011;12731;52.182;8.716;2023-03-31T09:49:05;3.83;;;1.60;;
24567;SDS011;12731;52.182;8.716;2023-03-31T09:51:40;4.28;;;1.80;;
24567;SDS011;12731;52.182;8.716;2023-03-31T09:54:18;4.93;;;1.88;;
24567;SDS011;12731;52.182;8.716;2023-03-31T09:56:49;5.60;;;1.85;;
24567;SDS011;12731;52.182;8.716;2023-03-31T09:59:20;4.70;;;1.80;;
24567;SDS011;12731;52.182;8.716;2023-03-31T10:01:56;3.65;;;1.65;;
24567;SDS011;12731;52.182;8.716;2023-03-31T10:04:26;3.63;;;1.30;;
24567;SDS011;12731;52.182;8.716;2023-03-31T10:06:55;7.43;;;1.60;;
24567;SDS011;12731;52.182;8.716;2023-03-31T10:09:26;3.72;;;1.45;;
24567;SDS011;12731;52.182;8.716;2023-03-31T10:14:25;3.67;;;2.00;;
24567;SDS011;12731;52.182;8.716;2023-03-31T10:16:54;3.13;;;1.58;;
24567;SDS011;12731;52.182;8.716;2023-03-31T10:19:26;5.35;;;1.38;;
24567;SDS011;12731;52.182;8.716;2023-03-31T10:21:54;3.60;;;1.20;;
24567;SDS011;12731;52.182;8.716;2023-03-31T10:24:23;3.78;;;1.40;;
24567;SDS011;12731;52.182;8.716;2023-03-31T10:26:51;4.90;;;2.40;;
24567;SDS011;12731;52.182;8.716;2023-03-31T10:29:37;5.20;;;1.83;;
24567;SDS011;12731;52.182;8.716;2023-03-31T10:32:07;4.70;;;2.45;;
24567;SDS011;12731;52.182;8.716;2023-03-31T10:34:36;6.82;;;1.60;;
24567;SDS011;12731;52.182;8.716;2023-03-31T10:37:05;5.40;;;1.42;;
24567;SDS011;12731;52.182;8.716;2023-03-31T10:39:32;3.42;;;1.30;;
24567;SDS011;12731;52.182;8.716;2023-03-31T10:41:59;2.95;;;1.33;;
24567;SDS011;12731;52.182;8.716;2023-03-31T10:44:30;2.85;;;1.23;;
24567;SDS011;12731;52.182;8.716;2023-03-31T10:49:36;4.25;;;1.60;;
24567;SDS011;12731;52.182;8.716;2023-03-31T10:52:14;3.72;;;1.45;;
24567;SDS011;12731;52.182;8.716;2023-03-31T10:54:46;4.43;;;1.50;;
24567;SDS011;12731;52.182;8.716;2023-03-31T10:57:16;3.95;;;1.30;;
24567;SDS011;12731;52.182;8.716;2023-03-31T10:59:53;3.85;;;1.30;;
24567;SDS011;12731;52.182;8.716;2023-03-31T11:05:30;4.15;;;1.83;;
24567;SDS011;12731;52.182;8.716;2023-03-31T11:10:56;4.88;;;1.60;;
24567;SDS011;12731;52.182;8.716;2023-03-31T11:14:00;4.03;;;1.30;;
24567;SDS011;12731;52.182;8.716;2023-03-31T11:16:43;3.30;;;1.67;;
24567;SDS011;12731;52.182;8.716;2023-03-31T11:28:11;5.50;;;1.40;;
24567;SDS011;12731;52.182;8.716;2023-03-31T11:30:57;4.28;;;1.58;;
24567;SDS011;12731;52.182;8.716;2023-03-31T11:36:44;5.28;;;1.90;;
24567;SDS011;12731;52.182;8.716;2023-03-31T11:42:33;6.30;;;1.90;;
24567;SDS011;12731;52.182;8.716;2023-03-31T11:45:11;3.72;;;1.60;;
24567;SDS011;12731;52.182;8.716;2023-03-31T11:47:41;6.03;;;1.90;;
24567;SDS011;12731;52.182;8.716;2023-03-31T11:50:17;5.18;;;1.70;;
24567;SDS011;12731;52.182;8.716;2023-03-31T11:52:49;5.47;;;2.05;;
24567;SDS011;12731;52.182;8.716;2023-03-31T11:55:22;6.22;;;1.85;;
24567;SDS011;12731;52.182;8.716;2023-03-31T11:57:59;4.18;;;1.80;;
24567;SDS011;12731;52.182;8.716;2023-03-31T12:00:40;5.72;;;2.55;;
24567;SDS011;12731;52.182;8.716;2023-03-31T12:03:13;8.70;;;2.30;;
24567;SDS011;12731;52.182;8.716;2023-03-31T12:06:02;5.43;;;1.97;;
24567;SDS011;12731;52.182;8.716;2023-03-31T12:08:38;5.10;;;1.90;;
24567;SDS011;12731;52.182;8.716;2023-03-31T12:11:12;7.95;;;2.75;;
24567;SDS011;12731;52.182;8.716;2023-03-31T12:16:17;8.05;;;2.83;;
24567;SDS011;12731;52.182;8.716;2023-03-31T12:18:57;5.60;;;2.60;;
24567;SDS011;12731;52.182;8.716;2023-03-31T12:21:27;7.03;;;2.38;;
24567;SDS011;12731;52.182;8.716;2023-03-31T12:23:54;5.82;;;2.55;;
24567;SDS011;12731;52.182;8.716;2023-03-31T12:26:35;6.47;;;2.70;;
24567;SDS011;12731;52.182;8.716;2023-03-31T12:29:28;14.25;;;2.63;;
24567;SDS011;12731;52.182;8.716;2023-03-31T12:31:57;5.85;;;2.40;;
24567;SDS011;12731;52.182;8.716;2023-03-31T12:34:26;9.52;;;3.65;;
24567;SDS011;12731;52.182;8.716;2023-03-31T12:37:00;8.50;;;2.92;;
24567;SDS011;12731;52.182;8.716;2023-03-31T12:39:38;11.10;;;3.15;;
24567;SDS011;12731;52.182;8.716;2023-03-31T12:45:22;8.70;;;4.45;;
24567;SDS011;12731;52.182;8.716;2023-03-31T12:50:40;8.18;;;3.90;;
24567;SDS011;12731;52.182;8.716;2023-03-31T12:59:43;11.57;;;3.45;;
24567;SDS011;12731;52.182;8.716;2023-03-31T13:02:21;10.27;;;3.53;;
24567;SDS011;12731;52.182;8.716;2023-03-31T13:04:49;7.60;;;3.28;;
24567;SDS011;12731;52.182;8.716;2023-03-31T13:09:58;9.45;;;3.53;;
24567;SDS011;12731;52.182;8.716;2023-03-31T13:13:34;10.25;;;4.30;;
24567;SDS011;12731;52.182;8.716;2023-03-31T13:15:38;6.57;;;3.38;;
24567;SDS011;12731;52.182;8.716;2023-03-31T13:18:06;9.88;;;3.42;;
24567;SDS011;12731;52.182;8.716;2023-03-31T13:20:34;8.15;;;3.35;;
24567;SDS011;12731;52.182;8.716;2023-03-31T13:23:08;8.63;;;2.78;;
24567;SDS011;12731;52.182;8.716;2023-03-31T13:25:46;8.77;;;2.92;;
24567;SDS011;12731;52.182;8.716;2023-03-31T13:28:16;8.15;;;3.00;;
24567;SDS011;12731;52.182;8.716;2023-03-31T13:30:52;13.52;;;3.78;;
24567;SDS011;12731;52.182;8.716;2023-03-31T13:33:28;9.75;;;3.55;;
24567;SDS011;12731;52.182;8.716;2023-03-31T13:38:33;10.15;;;4.53;;
24567;SDS011;12731;52.182;8.716;2023-03-31T14:01:50;9.90;;;2.92;;
24567;SDS011;12731;52.182;8.716;2023-03-31T14:04:25;6.93;;;3.25;;
24567;SDS011;12731;52.182;8.716;2023-03-31T14:07:07;7.45;;;3.00;;
24567;SDS011;12731;52.182;8.716;2023-03-31T14:09:35;9.18;;;3.10;;
24567;SDS011;12731;52.182;8.716;2023-03-31T14:12:20;7.30;;;2.80;;
24567;SDS011;12731;52.182;8.716;2023-03-31T14:14:57;7.47;;;3.28;;
24567;SDS011;12731;52.182;8.716;2023-03-31T14:17:28;10.50;;;3.08;;
24567;SDS011;12731;52.182;8.716;2023-03-31T14:20:02;8.55;;;2.75;;
24567;SDS011;12731;52.182;8.716;2023-03-31T14:22:47;6.85;;;2.60;;
24567;SDS011;12731;52.182;8.716;2023-03-31T14:25:29;8.45;;;2.67;;
24567;SDS011;12731;52.182;8.716;2023-03-31T14:28:36;6.65;;;2.22;;
24567;SDS011;12731;52.182;8.716;2023-03-31T14:31:37;8.02;;;2.80;;
24567;SDS011;12731;52.182;8.716;2023-03-31T14:39:24;9.57;;;2.40;;
24567;SDS011;12731;52.182;8.716;2023-03-31T14:41:53;7.30;;;2.17;;
24567;SDS011;12731;52.182;8.716;2023-03-31T14:44:21;8.57;;;2.70;;
24567;SDS011;12731;52.182;8.716;2023-03-31T14:46:48;6.90;;;2.40;;
24567;SDS011;12731;52.182;8.716;2023-03-31T14:49:26;7.60;;;2.15;;
24567;SDS011;12731;52.182;8.716;2023-03-31T14:51:57;8.65;;;2.80;;
24567;SDS011;12731;52.182;8.716;2023-03-31T14:54:25;7.72;;;2.67;;
24567;SDS011;12731;52.182;8.716;2023-03-31T14:56:53;8.30;;;2.30;;
24567;SDS011;12731;52.182;8.716;2023-03-31T14:59:21;8.52;;;2.55;;
24567;SDS011;12731;52.182;8.716;2023-03-31T15:01:50;5.65;;;2.30;;
24567;SDS011;12731;52.182;8.716;2023-03-31T15:04:18;7.80;;;2.83;;
24567;SDS011;12731;52.182;8.716;2023-03-31T15:07:04;8.45;;;2.30;;
24567;SDS011;12731;52.182;8.716;2023-03-31T15:09:32;6.93;;;2.40;;
24567;SDS011;12731;52.182;8.716;2023-03-31T15:12:02;8.80;;;2.40;;
24567;SDS011;12731;52.182;8.716;2023-03-31T15:14:30;8.70;;;2.40;;
24567;SDS011;12731;52.182;8.716;2023-03-31T15:16:59;5.28;;;2.08;;
24567;SDS011;12731;52.182;8.716;2023-03-31T15:19:26;5.70;;;2.25;;
24567;SDS011;12731;52.182;8.716;2023-03-31T15:21:58;4.30;;;2.10;;
24567;SDS011;12731;52.182;8.716;2023-03-31T15:24:28;6.35;;;2.17;;
24567;SDS011;12731;52.182;8.716;2023-03-31T15:29:35;8.30;;;2.75;;
24567;SDS011;12731;52.182;8.716;2023-03-31T15:32:05;9.07;;;3.13;;
24567;SDS011;12731;52.182;8.716;2023-03-31T15:34:37;5.90;;;2.33;;
24567;SDS011;12731;52.182;8.716;2023-03-31T15:37:05;8.60;;;2.20;;
24567;SDS011;12731;52.182;8.716;2023-03-31T15:39:32;8.52;;;2.50;;
24567;SDS011;12731;52.182;8.716;2023-03-31T15:42:02;8.88;;;2.42;;
24567;SDS011;12731;52.182;8.716;2023-03-31T15:47:38;8.73;;;2.50;;
24567;SDS011;12731;52.182;8.716;2023-03-31T15:49:47;7.80;;;2.50;;
24567;SDS011;12731;52.182;8.716;2023-03-31T15:52:20;5.22;;;2.03;;
24567;SDS011;12731;52.182;8.716;2023-03-31T15:54:47;6.67;;;1.93;;
24567;SDS011;12731;52.182;8.716;2023-03-31T15:57:15;5.85;;;2.08;;
24567;SDS011;12731;52.182;8.716;2023-03-31T15:59:47;6.88;;;2.15;;
24567;SDS011;12731;52.182;8.716;2023-03-31T16:02:22;7.15;;;2.17;;
24567;SDS011;12731;52.182;8.716;2023-03-31T16:08:45;8.82;;;1.75;;
24567;SDS011;12731;52.182;8.716;2023-03-31T16:11:14;5.55;;;1.88;;
24567;SDS011;12731;52.182;8.716;2023-03-31T16:13:49;7.60;;;2.03;;
24567;SDS011;12731;52.182;8.716;2023-03-31T16:16:17;5.65;;;1.63;;
24567;SDS011;12731;52.182;8.716;2023-03-31T16:18:46;7.38;;;1.88;;
24567;SDS011;12731;52.182;8.716;2023-03-31T16:21:43;4.93;;;1.63;;
24567;SDS011;12731;52.182;8.716;2023-03-31T16:24:12;7.07;;;2.07;;
24567;SDS011;12731;52.182;8.716;2023-03-31T16:26:39;6.80;;;2.13;;
24567;SDS011;12731;52.182;8.716;2023-03-31T16:29:06;7.32;;;2.10;;
24567;SDS011;12731;52.182;8.716;2023-03-31T16:31:34;5.13;;;1.58;;
24567;SDS011;12731;52.182;8.716;2023-03-31T16:34:03;3.83;;;1.60;;
24567;SDS011;12731;52.182;8.716;2023-03-31T16:36:31;6.15;;;1.80;;
24567;SDS011;12731;52.182;8.716;2023-03-31T16:38:57;7.13;;;1.92;;
24567;SDS011;12731;52.182;8.716;2023-03-31T16:41:27;6.85;;;2.00;;
24567;SDS011;12731;52.182;8.716;2023-03-31T16:43:54;6.45;;;1.70;;
24567;SDS011;12731;52.182;8.716;2023-03-31T16:46:21;7.53;;;2.00;;
24567;SDS011;12731;52.182;8.716;2023-03-31T16:48:48;9.60;;;2.30;;
24567;SDS011;12731;52.182;8.716;2023-03-31T16:51:15;5.15;;;1.55;;
24567;SDS011;12731;52.182;8.716;2023-03-31T16:53:42;5.43;;;1.98;;
24567;SDS011;12731;52.182;8.716;2023-03-31T16:56:09;9.00;;;2.20;;
24567;SDS011;12731;52.182;8.716;2023-03-31T16:58:37;9.02;;;2.30;;
24567;SDS011;12731;52.182;8.716;2023-03-31T17:01:04;6.60;;;1.92;;
24567;SDS011;12731;52.182;8.716;2023-03-31T17:03:32;7.63;;;2.28;;
24567;SDS011;12731;52.182;8.716;2023-03-31T17:06:03;5.40;;;1.90;;
24567;SDS011;12731;52.182;8.716;2023-03-31T17:08:31;8.63;;;2.45;;
24567;SDS011;12731;52.182;8.716;2023-03-31T17:11:03;9.85;;;2.30;;
24567;SDS011;12731;52.182;8.716;2023-03-31T17:13:32;8.20;;;2.42;;
24567;SDS011;12731;52.182;8.716;2023-03-31T17:15:59;7.35;;;2.38;;
24567;SDS011;12731;52.182;8.716;2023-03-31T17:18:42;6.70;;;2.10;;
24567;SDS011;12731;52.182;8.716;2023-03-31T17:21:10;6.68;;;2.33;;
24567;SDS011;12731;52.182;8.716;2023-03-31T17:23:38;6.22;;;2.20;;
24567;SDS011;12731;52.182;8.716;2023-03-31T17:26:06;8.00;;;1.85;;
24567;SDS011;12731;52.182;8.716;2023-03-31T17:28:34;10.25;;;2.33;;
24567;SDS011;12731;52.182;8.716;2023-03-31T17:31:01;8.63;;;2.25;;
24567;SDS011;12731;52.182;8.716;2023-03-31T17:33:28;8.45;;;2.40;;
24567;SDS011;12731;52.182;8.716;2023-03-31T17:35:55;7.53;;;2.50;;
24567;SDS011;12731;52.182;8.716;2023-03-31T17:38:24;8.93;;;2.63;;